This is the latest recevied weather packets stored in our database for station/object IW2LSY-11. If no packets are shown the sender has not sent any weather packets the latest 10 day(s).
| Time | Temp. | Humidity | Pressure | Rain* | Wind** | Luminosity | Snow |
|---|---|---|---|---|---|---|---|
| 1777966211 | 14.44° C | 56% | 1013.1 hPa | - | - | 392 W/m² | - |
| 1777965612 | 13.89° C | 58% | 1013 hPa | - | - | 393 W/m² | - |
| 1777965012 | 15° C | 58% | 1012.8 hPa | - | - | 393 W/m² | - |
| 1777964413 | 14.44° C | 61% | 1012.8 hPa | - | - | 393 W/m² | - |
| 1777963813 | 13.89° C | 59% | 1012.6 hPa | - | - | 393 W/m² | - |
| 1777963213 | 13.33° C | 61% | 1012.6 hPa | - | - | 394 W/m² | - |
| 1777962613 | 13.89° C | 59% | 1012.7 hPa | - | - | 395 W/m² | - |
| 1777962014 | 13.33° C | 61% | 1012.7 hPa | - | - | 395 W/m² | - |
| 1777961414 | 12.78° C | 60% | 1012.8 hPa | - | - | 395 W/m² | - |
| 1777960814 | 13.33° C | 59% | 1012.7 hPa | - | - | 395 W/m² | - |
| 1777960214 | 13.33° C | 60% | 1012.8 hPa | - | - | 396 W/m² | - |
| 1777959614 | 13.33° C | 59% | 1012.8 hPa | - | - | 396 W/m² | - |
| 1777959015 | 13.33° C | 59% | 1012.8 hPa | - | - | 396 W/m² | - |
| 1777958405 | 12.78° C | 61% | 1012.8 hPa | - | - | 397 W/m² | - |
| 1777957805 | 12.22° C | 62% | 1013 hPa | - | - | 396 W/m² | - |
| 1777957205 | 12.78° C | 59% | 1013 hPa | - | - | 397 W/m² | - |
| 1777956606 | 13.33° C | 56% | 1013 hPa | - | - | 398 W/m² | - |
| 1777956007 | 12.22° C | 59% | 1013.2 hPa | - | - | 398 W/m² | - |
| 1777955407 | 12.22° C | 62% | 1013.2 hPa | - | - | 400 W/m² | - |
| 1777954807 | 12.22° C | 62% | 1013.2 hPa | - | - | 401 W/m² | - |
| 1777954208 | 11.67° C | 65% | 1013.3 hPa | - | - | 401 W/m² | - |
| 1777953609 | 12.78° C | 62% | 1013.4 hPa | - | - | 401 W/m² | - |
| 1777953010 | 12.78° C | 59% | 1013.5 hPa | - | - | 402 W/m² | - |
| 1777952410 | 11.67° C | 64% | 1013.6 hPa | - | - | 402 W/m² | - |
| 1777951811 | 10.56° C | 70% | 1013.6 hPa | - | - | 403 W/m² | - |
* Rain since midnight (hover to see other rain measurements)
** Current wind speed in m/s (hover to see current wind gust speed)